createdAt,value
2019-04-16T00:00:53.021Z,5.78
2019-04-16T00:03:23.209Z,7.97
2019-04-16T00:06:00.435Z,8.73
2019-04-16T00:08:34.033Z,6.20
2019-04-16T00:11:07.639Z,7.58
2019-04-16T00:13:50.453Z,6.50
2019-04-16T00:16:19.292Z,5.33
2019-04-16T00:18:57.141Z,9.63
2019-04-16T00:21:26.032Z,9.53
2019-04-16T00:24:05.267Z,11.20
2019-04-16T00:26:34.463Z,9.10
2019-04-16T00:29:03.457Z,7.72
2019-04-16T00:31:34.363Z,5.40
2019-04-16T00:34:03.285Z,3.60
2019-04-16T00:36:32.279Z,3.70
2019-04-16T00:39:01.490Z,3.58
2019-04-16T00:41:30.462Z,3.35
2019-04-16T00:43:59.524Z,3.10
2019-04-16T00:46:29.886Z,3.47
2019-04-16T00:48:58.781Z,2.70
2019-04-16T00:51:28.081Z,3.05
2019-04-16T00:53:57.079Z,2.72
2019-04-16T00:56:26.068Z,2.65
2019-04-16T00:58:55.059Z,3.37
2019-04-16T01:01:24.306Z,2.90
2019-04-16T01:03:53.147Z,2.83
2019-04-16T01:06:21.931Z,2.98
2019-04-16T01:08:54.891Z,2.60
2019-04-16T01:11:21.255Z,2.90
2019-04-16T01:13:50.247Z,2.35
2019-04-16T01:16:19.240Z,2.95
2019-04-16T01:18:48.234Z,2.98
2019-04-16T01:21:17.236Z,2.15
2019-04-16T01:23:48.375Z,2.42
2019-04-16T01:26:16.748Z,2.60
2019-04-16T01:29:04.166Z,2.80
2019-04-16T01:31:38.773Z,3.20
2019-04-16T01:34:27.967Z,3.12
2019-04-16T01:37:07.405Z,2.55
2019-04-16T01:39:37.933Z,2.55
2019-04-16T01:42:06.925Z,2.75
2019-04-16T01:44:35.919Z,2.85
2019-04-16T01:47:23.958Z,2.98
2019-04-16T01:49:53.872Z,2.80
2019-04-16T01:52:22.868Z,2.85
2019-04-16T01:54:54.783Z,2.33
2019-04-16T01:57:22.390Z,2.60
2019-04-16T01:59:51.381Z,2.75
2019-04-16T02:02:20.375Z,2.37
2019-04-16T02:04:52.125Z,2.85
2019-04-16T02:07:19.687Z,2.77
2019-04-16T02:09:48.589Z,3.33
2019-04-16T02:12:17.584Z,4.35
2019-04-16T02:14:47.316Z,5.37
2019-04-16T02:17:17.102Z,5.78
2019-04-16T02:19:46.101Z,5.05
2019-04-16T02:22:15.086Z,4.40
2019-04-16T02:24:44.083Z,3.42
2019-04-16T02:27:12.866Z,3.37
2019-04-16T02:29:41.768Z,2.60
2019-04-16T02:32:10.756Z,2.47
2019-04-16T02:34:39.745Z,2.95
2019-04-16T02:37:08.819Z,2.60
2019-04-16T02:39:49.111Z,3.20
2019-04-16T02:42:08.721Z,2.83
2019-04-16T02:44:37.865Z,3.00
2019-04-16T02:47:08.054Z,3.40
2019-04-16T02:49:37.166Z,3.22
2019-04-16T02:52:14.988Z,3.55
2019-04-16T02:54:52.331Z,3.30
2019-04-16T02:57:26.652Z,3.12
2019-04-16T02:59:54.223Z,3.58
2019-04-16T03:02:24.776Z,3.30
2019-04-16T03:05:11.593Z,4.37
2019-04-16T03:07:40.584Z,5.65
2019-04-16T03:10:13.069Z,5.55
2019-04-16T03:12:40.204Z,11.83
2019-04-16T03:15:09.168Z,14.60
2019-04-16T03:17:42.901Z,14.87
2019-04-16T03:20:15.073Z,16.95
2019-04-16T03:22:43.952Z,11.55
2019-04-16T03:25:14.105Z,10.65
2019-04-16T03:27:43.586Z,7.80
2019-04-16T03:30:12.580Z,6.95
2019-04-16T03:32:53.138Z,5.10
2019-04-16T03:35:25.553Z,5.40
2019-04-16T03:37:52.570Z,4.37
2019-04-16T03:40:24.864Z,4.85
2019-04-16T03:42:51.982Z,4.12
2019-04-16T03:45:20.990Z,4.55
2019-04-16T03:47:51.357Z,4.85
2019-04-16T03:50:20.391Z,5.50
2019-04-16T03:52:49.285Z,4.30
2019-04-16T03:55:18.387Z,3.55
2019-04-16T03:57:47.366Z,5.47
2019-04-16T04:00:16.471Z,4.92
2019-04-16T04:02:45.354Z,3.60
2019-04-16T04:05:14.255Z,3.40
2019-04-16T04:07:44.243Z,3.17
2019-04-16T04:10:13.672Z,3.27
2019-04-16T04:12:45.352Z,3.40
2019-04-16T04:15:13.293Z,6.15
2019-04-16T04:17:42.597Z,66.65
2019-04-16T04:20:14.867Z,8.95
2019-04-16T04:22:42.833Z,67.58
2019-04-16T04:25:11.931Z,8.95
2019-04-16T04:27:43.557Z,47.45
2019-04-16T04:30:11.958Z,42.73
2019-04-16T04:32:40.852Z,73.55
2019-04-16T04:35:10.360Z,16.57
2019-04-16T04:37:39.352Z,11.18
2019-04-16T04:40:08.347Z,14.63
2019-04-16T04:42:37.121Z,17.07
2019-04-16T04:45:09.010Z,12.90
2019-04-16T04:47:38.091Z,8.00
2019-04-16T04:50:08.371Z,6.90
2019-04-16T04:52:37.176Z,8.93
2019-04-16T04:55:06.379Z,11.03
2019-04-16T04:57:35.291Z,24.52
2019-04-16T05:00:08.425Z,28.32
2019-04-16T05:02:38.086Z,3.10
2019-04-16T05:05:12.202Z,17.70
2019-04-16T05:07:41.094Z,26.57
2019-04-16T05:10:10.189Z,3.20
2019-04-16T05:12:39.084Z,3.20
2019-04-16T05:15:08.077Z,2.83
2019-04-16T05:17:38.480Z,2.47
2019-04-16T05:20:07.985Z,3.80
2019-04-16T05:22:36.900Z,2.85
2019-04-16T05:25:09.278Z,3.00
2019-04-16T05:27:41.284Z,3.95
2019-04-16T05:30:08.890Z,3.50
2019-04-16T05:32:37.785Z,3.75
2019-04-16T05:35:10.307Z,3.42
2019-04-16T05:37:38.230Z,5.17
2019-04-16T05:40:07.717Z,5.72
2019-04-16T05:42:36.625Z,7.15
2019-04-16T05:45:07.999Z,5.20
2019-04-16T05:47:36.967Z,5.20
2019-04-16T05:50:06.866Z,6.30
2019-04-16T05:52:36.663Z,4.33
2019-04-16T05:55:18.844Z,3.92
2019-04-16T05:57:49.629Z,4.70
2019-04-16T06:00:20.497Z,3.98
2019-04-16T06:02:50.547Z,4.35
2019-04-16T06:05:19.779Z,6.58
2019-04-16T06:07:48.718Z,8.63
2019-04-16T06:10:19.083Z,3.80
2019-04-16T06:13:01.711Z,8.25
2019-04-16T06:15:38.079Z,3.83
2019-04-16T06:18:18.332Z,3.70
2019-04-16T06:20:54.690Z,4.20
2019-04-16T06:23:36.896Z,5.80
2019-04-16T06:26:07.077Z,4.15
2019-04-16T06:28:37.140Z,4.17
2019-04-16T06:31:10.159Z,4.45
2019-04-16T06:33:42.192Z,4.45
2019-04-16T06:36:12.299Z,4.40
2019-04-16T06:38:45.404Z,4.60
2019-04-16T06:41:15.507Z,4.62
2019-04-16T06:43:45.637Z,4.17
2019-04-16T06:46:33.844Z,3.60
2019-04-16T06:49:06.772Z,4.28
2019-04-16T06:51:53.275Z,10.18
2019-04-16T06:54:25.405Z,12.82
2019-04-16T06:57:12.870Z,5.05
2019-04-16T06:59:43.185Z,7.10
2019-04-16T07:02:25.497Z,3.85
2019-04-16T07:04:58.340Z,6.87
2019-04-16T07:07:40.033Z,10.43
2019-04-16T07:10:06.402Z,13.88
2019-04-16T07:12:38.375Z,3.85
2019-04-16T07:15:06.634Z,5.83
2019-04-16T07:17:35.122Z,4.97
2019-04-16T07:20:05.008Z,4.17
2019-04-16T07:22:33.613Z,2.58
2019-04-16T07:25:04.482Z,3.22
2019-04-16T07:27:38.077Z,2.62
2019-04-16T07:30:08.470Z,2.37
2019-04-16T07:32:47.614Z,2.83
2019-04-16T07:35:26.950Z,2.58
2019-04-16T07:37:55.435Z,2.70
2019-04-16T07:40:42.031Z,3.10
2019-04-16T07:43:31.160Z,3.10
2019-04-16T07:46:00.384Z,2.85
2019-04-16T07:48:36.346Z,2.52
2019-04-16T07:51:23.273Z,3.08
2019-04-16T07:54:02.517Z,3.15
2019-04-16T07:56:30.475Z,2.10
2019-04-16T07:59:01.593Z,2.60
2019-04-16T08:01:31.084Z,2.03
2019-04-16T08:04:01.370Z,2.35
2019-04-16T08:06:30.446Z,2.02
2019-04-16T08:08:59.496Z,6.50
2019-04-16T08:11:28.544Z,13.10
2019-04-16T08:13:57.768Z,2.50
2019-04-16T08:16:47.620Z,16.37
2019-04-16T08:19:16.710Z,2.05
2019-04-16T08:21:45.599Z,33.45
2019-04-16T08:24:16.129Z,5.65
2019-04-16T08:26:45.418Z,4.33
2019-04-16T08:29:14.620Z,2.27
2019-04-16T08:31:45.264Z,5.10
2019-04-16T08:34:14.248Z,12.88
2019-04-16T08:36:43.241Z,5.12
2019-04-16T08:39:13.770Z,2.70
2019-04-16T08:41:42.661Z,2.00
2019-04-16T08:44:11.537Z,2.92
2019-04-16T08:46:41.228Z,2.30
2019-04-16T08:49:10.360Z,3.08
2019-04-16T08:51:39.354Z,2.62
2019-04-16T08:54:08.346Z,1.95
2019-04-16T08:56:37.342Z,8.63
2019-04-16T08:59:09.793Z,2.60
2019-04-16T09:01:36.859Z,5.62
2019-04-16T09:04:05.850Z,3.67
2019-04-16T09:06:34.635Z,1.80
2019-04-16T09:09:14.007Z,2.17
2019-04-16T09:11:39.997Z,1.65
2019-04-16T09:14:08.888Z,1.40
2019-04-16T09:16:39.417Z,2.15
2019-04-16T09:19:09.840Z,5.25
2019-04-16T09:21:43.243Z,5.65
2019-04-16T09:24:27.386Z,1.72
2019-04-16T09:27:12.543Z,5.45
2019-04-16T09:29:48.009Z,1.40
2019-04-16T09:32:24.574Z,1.22
2019-04-16T09:35:18.378Z,1.27
2019-04-16T09:37:47.864Z,1.17
2019-04-16T09:40:21.458Z,1.37
2019-04-16T09:42:50.451Z,1.45
2019-04-16T09:45:19.550Z,1.65
2019-04-16T09:47:48.436Z,2.77
2019-04-16T09:50:17.430Z,2.40
2019-04-16T09:52:46.236Z,2.10
2019-04-16T09:55:18.207Z,2.25
2019-04-16T09:57:45.736Z,2.25
2019-04-16T10:00:20.330Z,1.70
2019-04-16T10:02:47.408Z,1.92
2019-04-16T10:05:16.405Z,1.70
2019-04-16T10:07:45.306Z,1.87
2019-04-16T10:10:15.236Z,8.48
2019-04-16T10:12:44.012Z,4.10
2019-04-16T10:15:14.095Z,4.22
2019-04-16T10:17:43.111Z,3.17
2019-04-16T10:20:11.977Z,2.72
2019-04-16T10:22:40.909Z,2.50
2019-04-16T10:25:11.448Z,4.03
2019-04-16T10:27:41.958Z,2.40
2019-04-16T10:30:12.683Z,4.78
2019-04-16T10:32:41.680Z,7.37
2019-04-16T10:35:10.684Z,7.85
2019-04-16T10:37:39.678Z,8.48
2019-04-16T10:40:16.275Z,1.65
2019-04-16T10:42:56.091Z,2.22
2019-04-16T10:45:42.006Z,1.20
2019-04-16T10:48:12.627Z,1.37
2019-04-16T10:50:43.165Z,1.40
2019-04-16T10:53:25.348Z,1.80
2019-04-16T10:56:04.535Z,1.37
2019-04-16T10:58:35.048Z,1.57
2019-04-16T11:01:15.293Z,1.70
2019-04-16T11:03:46.006Z,1.60
2019-04-16T11:06:16.645Z,1.95
2019-04-16T11:08:45.720Z,1.70
2019-04-16T11:11:16.066Z,2.02
2019-04-16T11:13:59.193Z,1.52
2019-04-16T11:16:18.632Z,1.40
2019-04-16T11:18:47.728Z,1.60
2019-04-16T11:21:16.854Z,1.12
2019-04-16T11:23:45.815Z,1.50
2019-04-16T11:26:14.808Z,1.40
2019-04-16T11:28:44.024Z,2.00
2019-04-16T11:31:14.781Z,1.25
2019-04-16T11:33:43.935Z,2.00
2019-04-16T11:36:19.876Z,1.42
2019-04-16T11:38:43.677Z,1.65
2019-04-16T11:41:12.709Z,2.47
2019-04-16T11:43:43.302Z,2.70
2019-04-16T11:46:12.536Z,2.42
2019-04-16T11:48:41.591Z,2.27
2019-04-16T11:51:10.981Z,2.30
2019-04-16T11:53:39.915Z,1.40
2019-04-16T11:56:09.055Z,1.35
2019-04-16T11:58:45.677Z,1.77
2019-04-16T12:01:17.219Z,2.02
2019-04-16T12:03:57.987Z,1.70
2019-04-16T12:06:37.445Z,1.70
2019-04-16T12:09:17.067Z,4.50
2019-04-16T12:11:50.220Z,2.58
2019-04-16T12:14:34.374Z,1.60
2019-04-16T12:17:10.866Z,4.80
2019-04-16T12:19:57.917Z,4.20
2019-04-16T12:22:28.417Z,1.52
2019-04-16T12:25:15.219Z,1.42
2019-04-16T12:27:57.765Z,1.45
2019-04-16T12:33:20.312Z,2.47
2019-04-16T12:36:12.821Z,5.17
2019-04-16T12:38:41.706Z,1.45
2019-04-16T12:41:18.084Z,2.85
2019-04-16T12:43:51.869Z,2.00
2019-04-16T12:46:28.568Z,2.05
2019-04-16T12:49:11.390Z,1.70
2019-04-16T12:51:44.841Z,1.60
2019-04-16T12:54:30.644Z,1.22
2019-04-16T12:57:01.296Z,1.65
2019-04-16T12:59:31.931Z,1.80
2019-04-16T13:02:13.419Z,1.57
2019-04-16T13:04:45.753Z,2.83
2019-04-16T13:07:28.552Z,1.70
2019-04-16T13:10:11.225Z,1.37
2019-04-16T13:15:28.045Z,1.55
2019-04-16T13:18:08.048Z,2.00
2019-04-16T13:20:57.254Z,16.90
2019-04-16T13:23:39.566Z,4.53
2019-04-16T13:26:25.297Z,9.65
2019-04-16T13:28:55.517Z,16.25
2019-04-16T13:31:24.882Z,3.35
2019-04-16T13:33:53.874Z,1.80
2019-04-16T13:36:27.021Z,1.52
2019-04-16T13:39:00.466Z,1.45
2019-04-16T13:41:29.338Z,13.13
2019-04-16T13:44:18.424Z,21.82
2019-04-16T13:46:47.512Z,15.25
2019-04-16T13:49:43.135Z,2.62
2019-04-16T13:52:12.131Z,1.65
2019-04-16T13:54:42.660Z,2.30
2019-04-16T13:57:13.316Z,1.50
2019-04-16T13:59:55.795Z,1.72
2019-04-16T14:02:26.535Z,1.15
2019-04-16T14:04:55.325Z,1.50
2019-04-16T14:07:25.477Z,1.72
2019-04-16T14:09:54.634Z,2.95
2019-04-16T14:12:42.864Z,1.70
2019-04-16T14:15:12.716Z,1.65
2019-04-16T14:17:52.375Z,2.20
2019-04-16T14:20:13.914Z,1.70
2019-04-16T14:22:43.461Z,1.60
2019-04-16T14:25:12.355Z,1.98
2019-04-16T14:27:41.342Z,7.30
2019-04-16T14:30:12.384Z,1.75
2019-04-16T14:32:41.372Z,2.35
2019-04-16T14:35:32.465Z,2.52
2019-04-16T14:37:48.383Z,4.72
2019-04-16T14:40:19.216Z,1.80
2019-04-16T14:42:48.222Z,2.70
2019-04-16T14:45:27.960Z,2.10
2019-04-16T14:47:56.947Z,2.08
2019-04-16T14:50:26.247Z,1.80
2019-04-16T14:52:55.163Z,2.33
2019-04-16T14:55:59.197Z,2.52
2019-04-16T14:58:23.524Z,2.37
2019-04-16T15:01:10.855Z,4.35
2019-04-16T15:03:50.575Z,3.37
2019-04-16T15:06:39.561Z,7.05
2019-04-16T15:09:19.301Z,2.87
2019-04-16T15:11:58.379Z,3.10
2019-04-16T15:14:27.633Z,2.62
2019-04-16T15:17:13.566Z,2.35
2019-04-16T15:19:44.258Z,2.40
2019-04-16T15:22:33.117Z,2.92
2019-04-16T15:25:12.758Z,3.47
2019-04-16T15:27:55.865Z,2.85
2019-04-16T15:30:42.799Z,3.05
2019-04-16T15:33:19.468Z,2.72
2019-04-16T15:35:52.459Z,2.95
2019-04-16T15:38:23.181Z,3.15
2019-04-16T15:40:53.720Z,3.00
2019-04-16T15:43:33.156Z,3.25
2019-04-16T15:46:07.754Z,3.02
2019-04-16T15:48:42.002Z,3.20
2019-04-16T15:51:15.803Z,3.37
2019-04-16T15:53:47.761Z,2.80
2019-04-16T15:56:24.848Z,4.72
2019-04-16T15:58:55.378Z,4.10
2019-04-16T16:01:32.054Z,4.20
2019-04-16T16:04:08.829Z,4.72
2019-04-16T16:06:39.451Z,5.37
2019-04-16T16:09:10.103Z,3.30
2019-04-16T16:11:44.562Z,3.67
2019-04-16T16:14:13.704Z,3.35
2019-04-16T16:16:42.704Z,3.10
2019-04-16T16:19:12.232Z,2.90
2019-04-16T16:21:41.400Z,2.98
2019-04-16T16:24:10.392Z,6.20
2019-04-16T16:26:39.336Z,2.95
2019-04-16T16:29:08.283Z,3.40
2019-04-16T16:31:37.273Z,3.25
2019-04-16T16:34:08.892Z,5.28
2019-04-16T16:36:40.436Z,4.22
2019-04-16T16:39:08.247Z,4.22
2019-04-16T16:41:37.246Z,4.65
2019-04-16T16:44:06.483Z,3.80
2019-04-16T16:46:37.377Z,3.58
2019-04-16T16:49:06.314Z,2.98
2019-04-16T16:51:35.382Z,3.12
2019-04-16T16:54:18.691Z,3.20
2019-04-16T16:56:52.088Z,3.27
2019-04-16T16:59:40.743Z,3.83
2019-04-16T17:02:11.367Z,3.45
2019-04-16T17:04:42.009Z,4.00
2019-04-16T17:07:11.028Z,2.92
2019-04-16T17:09:39.885Z,3.17
2019-04-16T17:12:10.111Z,3.20
2019-04-16T17:14:39.216Z,3.17
2019-04-16T17:17:13.863Z,5.70
2019-04-16T17:19:39.078Z,5.97
2019-04-16T17:22:08.128Z,2.85
2019-04-16T17:24:37.025Z,4.00
2019-04-16T17:27:06.330Z,4.08
2019-04-16T17:29:35.325Z,3.50
2019-04-16T17:32:04.302Z,4.10
2019-04-16T17:34:36.203Z,6.17
2019-04-16T17:37:03.965Z,5.47
2019-04-16T17:39:34.460Z,5.20
2019-04-16T17:42:05.315Z,5.67
2019-04-16T17:44:45.254Z,5.60
2019-04-16T17:47:31.387Z,6.62
2019-04-16T17:49:51.016Z,5.97
2019-04-16T17:52:21.645Z,5.87
2019-04-16T17:54:58.054Z,6.47
2019-04-16T17:57:29.841Z,9.13
2019-04-16T18:00:07.172Z,11.20
2019-04-16T18:02:54.074Z,11.05
2019-04-16T18:05:40.787Z,10.40
2019-04-16T18:08:30.078Z,7.25
2019-04-16T18:11:06.172Z,6.97
2019-04-16T18:13:56.699Z,6.83
2019-04-16T18:16:30.105Z,6.37
2019-04-16T18:19:12.868Z,6.42
2019-04-16T18:24:30.774Z,7.37
2019-04-16T18:27:17.896Z,7.70
2019-04-16T18:29:54.567Z,13.95
2019-04-16T18:32:27.709Z,32.70
2019-04-16T18:34:57.408Z,31.23
2019-04-16T18:37:34.350Z,31.30
2019-04-16T18:40:11.328Z,29.63
2019-04-16T18:43:00.287Z,27.00
2019-04-16T18:45:37.164Z,30.30
2019-04-16T18:48:12.960Z,28.17
2019-04-16T18:50:38.355Z,18.92
2019-04-16T18:53:10.638Z,26.07
2019-04-16T18:55:37.951Z,68.00
2019-04-16T18:58:06.822Z,139.35
2019-04-16T19:00:40.337Z,135.72
2019-04-16T19:03:14.629Z,77.90
2019-04-16T19:05:41.511Z,52.48
2019-04-16T19:08:10.254Z,47.67
2019-04-16T19:10:40.109Z,28.38
2019-04-16T19:13:11.409Z,26.35
2019-04-16T19:15:39.730Z,19.48
2019-04-16T19:18:18.957Z,23.00
2019-04-16T19:20:39.149Z,18.67
2019-04-16T19:23:08.139Z,17.73
2019-04-16T19:25:37.138Z,12.45
2019-04-16T19:28:06.939Z,9.88
2019-04-16T19:30:36.097Z,7.90
2019-04-16T19:33:05.018Z,7.00
2019-04-16T19:35:34.029Z,8.75
2019-04-16T19:38:06.497Z,13.40
2019-04-16T19:40:33.654Z,7.85
2019-04-16T19:43:03.511Z,16.15
2019-04-16T19:45:32.555Z,42.25
2019-04-16T19:48:02.114Z,21.77
2019-04-16T19:50:36.164Z,18.15
2019-04-16T19:53:02.708Z,13.40
2019-04-16T19:55:34.368Z,9.35
2019-04-16T19:58:03.260Z,8.80
2019-04-16T20:00:35.120Z,11.12
2019-04-16T20:03:04.420Z,6.28
2019-04-16T20:05:33.200Z,6.78
2019-04-16T20:08:02.422Z,11.28
2019-04-16T20:10:31.606Z,13.98
2019-04-16T20:13:00.492Z,11.57
2019-04-16T20:15:29.382Z,10.98
2019-04-16T20:17:58.380Z,12.55
2019-04-16T20:20:27.251Z,28.92
2019-04-16T20:22:56.261Z,25.57
2019-04-16T20:25:25.261Z,24.40
2019-04-16T20:27:54.251Z,33.10
2019-04-16T20:30:24.287Z,36.40
2019-04-16T20:32:53.566Z,17.23
2019-04-16T20:35:22.766Z,12.63
2019-04-16T20:37:54.255Z,9.63
2019-04-16T20:40:22.292Z,8.23
2019-04-16T20:42:51.273Z,8.35
2019-04-16T20:45:20.271Z,8.95
2019-04-16T20:47:49.264Z,8.40
2019-04-16T20:50:20.819Z,7.62
2019-04-16T20:52:48.788Z,8.25
2019-04-16T20:55:17.779Z,11.22
2019-04-16T20:57:46.771Z,21.17
2019-04-16T21:00:17.725Z,18.87
2019-04-16T21:02:48.177Z,13.62
2019-04-16T21:05:22.170Z,8.40
2019-04-16T21:07:48.074Z,11.83
2019-04-16T21:10:17.060Z,8.98
2019-04-16T21:12:46.875Z,17.00
2019-04-16T21:15:15.869Z,20.15
2019-04-16T21:17:44.861Z,13.45
2019-04-16T21:20:13.736Z,13.85
2019-04-16T21:22:42.723Z,9.15
2019-04-16T21:25:13.847Z,10.05
2019-04-16T21:28:02.230Z,9.13
2019-04-16T21:30:31.124Z,8.68
2019-04-16T21:33:01.957Z,8.25
2019-04-16T21:35:51.744Z,8.65
2019-04-16T21:38:22.271Z,11.10
2019-04-16T21:40:52.784Z,13.13
2019-04-16T21:43:21.793Z,9.95
2019-04-16T21:45:50.799Z,6.17
2019-04-16T21:48:19.780Z,6.33
2019-04-16T21:50:48.774Z,8.35
2019-04-16T21:53:17.767Z,7.05
2019-04-16T21:55:46.759Z,7.55
2019-04-16T21:58:17.685Z,10.85
2019-04-16T22:00:48.126Z,8.98
2019-04-16T22:03:18.838Z,8.98
2019-04-16T22:05:48.342Z,8.33
2019-04-16T22:08:17.975Z,6.90
2019-04-16T22:10:46.837Z,6.53
2019-04-16T22:13:19.139Z,5.45
2019-04-16T22:15:46.384Z,4.17
2019-04-16T22:18:15.375Z,5.75
2019-04-16T22:20:44.371Z,5.00
2019-04-16T22:23:16.356Z,4.62
2019-04-16T22:25:43.891Z,3.83
2019-04-16T22:28:13.040Z,4.20
2019-04-16T22:30:42.184Z,4.12
2019-04-16T22:33:11.067Z,3.70
2019-04-16T22:35:39.964Z,3.75
2019-04-16T22:38:13.286Z,2.98
2019-04-16T22:40:47.375Z,3.45
2019-04-16T22:43:17.903Z,3.77
2019-04-16T22:45:51.997Z,4.08
2019-04-16T22:48:18.960Z,3.27
2019-04-16T22:50:47.954Z,3.45
2019-04-16T22:53:17.874Z,6.22
2019-04-16T22:55:46.872Z,6.00
2019-04-16T22:58:25.685Z,6.60
2019-04-16T23:00:56.215Z,5.20
2019-04-16T23:03:25.206Z,6.17
2019-04-16T23:05:54.201Z,4.28
2019-04-16T23:08:22.986Z,4.50
2019-04-16T23:10:52.198Z,5.05
2019-04-16T23:13:21.181Z,5.47
2019-04-16T23:15:51.095Z,3.80
2019-04-16T23:18:20.087Z,3.42
2019-04-16T23:20:49.082Z,3.90
2019-04-16T23:23:19.008Z,4.40
2019-04-16T23:25:48.294Z,4.00
2019-04-16T23:28:17.288Z,3.20
2019-04-16T23:30:47.938Z,3.65
2019-04-16T23:33:16.821Z,2.90
2019-04-16T23:35:45.804Z,2.95
2019-04-16T23:38:14.797Z,3.05
2019-04-16T23:40:44.217Z,3.60
2019-04-16T23:43:31.313Z,3.52
2019-04-16T23:46:10.905Z,4.25
2019-04-16T23:48:50.707Z,3.20
2019-04-16T23:51:37.515Z,2.80
2019-04-16T23:54:13.915Z,3.72
2019-04-16T23:56:52.892Z,2.77
2019-04-16T23:59:38.594Z,2.80
